This is the latest recevied weather packets stored in our database for station/object N9BLE. If no packets are shown the sender has not sent any weather packets the latest 1 day(s).
| Time | Temp. | Humidity | Pressure | Rain* | Wind** | Luminosity | Snow |
|---|---|---|---|---|---|---|---|
| 1778087096 | 12.22° C | 39% | 1017.9 hPa | 0 mm | - | 342 W/m² | - |
| 1778086188 | 12.78° C | 39% | 1017.8 hPa | 0 mm | - | 301 W/m² | - |
| 1778085885 | 12.22° C | 42% | 1018 hPa | 0 mm | - | 310 W/m² | - |
| 1778085583 | 12.22° C | 38% | 1018.1 hPa | 0 mm | - | 244 W/m² | - |
| 1778083158 | 11.67° C | 42% | 1017.8 hPa | 0 mm | - | 212 W/m² | - |
| 1778081434 | 10.56° C | 45% | 1017.8 hPa | 0 mm | - | 118 W/m² | - |
| 1778081131 | 10.56° C | 43% | 1017.8 hPa | 0 mm | - | 134 W/m² | - |
| 1778079920 | 11.11° C | 45% | 1018 hPa | 0 mm | - | 208 W/m² | - |
| 1778077196 | 10° C | 51% | 1018.2 hPa | 0 mm | - | 125 W/m² | - |
| 1778076894 | 9.44° C | 51% | 1018.2 hPa | 0 mm | - | 143 W/m² | - |
| 1778075985 | 10° C | 50% | 1018.1 hPa | 0 mm | - | 170 W/m² | - |
| 1778075683 | 10° C | 52% | 1018 hPa | 0 mm | - | 174 W/m² | - |
| 1778075075 | 9.44° C | 50% | 1018.1 hPa | 0 mm | - | 112 W/m² | - |
| 1778074772 | 10° C | 48% | 1017.9 hPa | 0 mm | - | 112 W/m² | - |
| 1778074166 | 9.44° C | 52% | 1017.7 hPa | 0 mm | - | 127 W/m² | - |
| 1778072954 | 8.89° C | 49% | 1017.2 hPa | 0 mm | - | 102 W/m² | - |
| 1778072650 | 9.44° C | 54% | 1017.1 hPa | 0 mm | - | 129 W/m² | - |
| 1778071441 | 7.22° C | 63% | 1017.1 hPa | 0 mm | - | 153 W/m² | - |
| 1778071139 | 7.78° C | 64% | 1017.1 hPa | 0 mm | - | 102 W/m² | - |
| 1778070837 | 7.22° C | 59% | 1016.9 hPa | 0 mm | - | 116 W/m² | - |
| 1778068416 | 3.33° C | 83% | 1016.3 hPa | 0 mm | - | 31 W/m² | - |
| 1778066903 | 2.78° C | 77% | 1016 hPa | 0 mm | - | 28 W/m² | - |
| 1778065693 | 2.78° C | 78% | 1016.1 hPa | 0 mm | - | 14 W/m² | - |
| 1778063876 | 2.78° C | 77% | 1016 hPa | 0 mm | - | 1 W/m² | - |
| 1778063573 | 2.78° C | 76% | 1016 hPa | 0 mm | - | 0 W/m² | - |
* Rain latest hour (hover to see other rain measurements)
** Current wind speed in m/s (hover to see current wind gust speed)